sensor_id;sensor_type;location;lat;lon;timestamp;P1;durP1;ratioP1;P2;durP2;ratioP2
17510;SDS011;8873;48.818;9.422;2023-11-19T16:48:28;8.23;;;4.57;;
17510;SDS011;8873;48.818;9.422;2023-11-19T16:50:56;7.07;;;4.28;;
17510;SDS011;8873;48.818;9.422;2023-11-19T16:53:30;3.22;;;2.75;;
17510;SDS011;8873;48.818;9.422;2023-11-19T16:55:58;2.95;;;2.60;;
17510;SDS011;8873;48.818;9.422;2023-11-19T16:58:25;5.38;;;2.70;;
17510;SDS011;8873;48.818;9.422;2023-11-19T17:04:38;3.38;;;2.90;;
17510;SDS011;8873;48.818;9.422;2023-11-19T17:07:10;6.85;;;3.35;;
17510;SDS011;8873;48.818;9.422;2023-11-19T17:09:43;3.05;;;2.67;;
17510;SDS011;8873;48.818;9.422;2023-11-19T17:12:11;7.65;;;5.05;;
17510;SDS011;8873;48.818;9.422;2023-11-19T17:14:41;5.18;;;2.88;;
17510;SDS011;8873;48.818;9.422;2023-11-19T17:17:10;4.13;;;3.13;;
17510;SDS011;8873;48.818;9.422;2023-11-19T17:19:40;3.75;;;2.90;;
17510;SDS011;8873;48.818;9.422;2023-11-19T17:22:09;3.55;;;3.00;;
17510;SDS011;8873;48.818;9.422;2023-11-19T17:28:06;3.88;;;2.72;;
17510;SDS011;8873;48.818;9.422;2023-11-19T17:30:34;2.78;;;2.53;;
17510;SDS011;8873;48.818;9.422;2023-11-19T17:33:02;14.75;;;3.15;;
17510;SDS011;8873;48.818;9.422;2023-11-19T17:35:34;4.22;;;2.00;;
17510;SDS011;8873;48.818;9.422;2023-11-19T17:38:02;2.70;;;2.50;;
17510;SDS011;8873;48.818;9.422;2023-11-19T17:40:31;2.47;;;2.10;;
17510;SDS011;8873;48.818;9.422;2023-11-19T17:42:58;2.60;;;1.95;;
17510;SDS011;8873;48.818;9.422;2023-11-19T17:45:26;1.98;;;1.88;;
17510;SDS011;8873;48.818;9.422;2023-11-19T17:47:56;2.92;;;1.90;;
17510;SDS011;8873;48.818;9.422;2023-11-19T17:50:23;4.20;;;2.30;;
17510;SDS011;8873;48.818;9.422;2023-11-19T17:52:53;2.30;;;2.08;;
17510;SDS011;8873;48.818;9.422;2023-11-19T17:55:22;1.90;;;1.73;;
17510;SDS011;8873;48.818;9.422;2023-11-19T17:57:49;3.15;;;1.88;;
17510;SDS011;8873;48.818;9.422;2023-11-19T18:00:18;3.80;;;2.13;;
17510;SDS011;8873;48.818;9.422;2023-11-19T18:02:45;1.73;;;1.63;;
17510;SDS011;8873;48.818;9.422;2023-11-19T18:05:16;11.07;;;4.50;;
17510;SDS011;8873;48.818;9.422;2023-11-19T18:07:47;4.35;;;2.88;;
17510;SDS011;8873;48.818;9.422;2023-11-19T18:10:16;5.90;;;2.33;;
17510;SDS011;8873;48.818;9.422;2023-11-19T18:12:44;3.33;;;2.10;;
17510;SDS011;8873;48.818;9.422;2023-11-19T18:15:12;3.95;;;2.13;;
17510;SDS011;8873;48.818;9.422;2023-11-19T18:17:41;2.45;;;1.73;;
17510;SDS011;8873;48.818;9.422;2023-11-19T18:20:10;1.92;;;1.77;;
17510;SDS011;8873;48.818;9.422;2023-11-19T18:22:49;2.55;;;2.35;;
17510;SDS011;8873;48.818;9.422;2023-11-19T18:25:18;3.42;;;2.65;;
17510;SDS011;8873;48.818;9.422;2023-11-19T18:27:47;2.55;;;2.33;;
17510;SDS011;8873;48.818;9.422;2023-11-19T18:37:18;4.53;;;2.30;;
17510;SDS011;8873;48.818;9.422;2023-11-19T18:39:46;6.07;;;2.67;;
17510;SDS011;8873;48.818;9.422;2023-11-19T18:42:15;2.30;;;2.13;;
17510;SDS011;8873;48.818;9.422;2023-11-19T18:44:43;2.13;;;2.00;;
17510;SDS011;8873;48.818;9.422;2023-11-19T18:47:11;1.83;;;1.73;;
17510;SDS011;8873;48.818;9.422;2023-11-19T18:49:38;1.95;;;1.67;;
17510;SDS011;8873;48.818;9.422;2023-11-19T18:52:07;1.70;;;1.63;;
17510;SDS011;8873;48.818;9.422;2023-11-19T18:54:35;1.77;;;1.67;;
17510;SDS011;8873;48.818;9.422;2023-11-19T18:57:03;2.05;;;1.88;;
17510;SDS011;8873;48.818;9.422;2023-11-19T18:59:32;3.28;;;2.75;;
17510;SDS011;8873;48.818;9.422;2023-11-19T19:02:00;3.97;;;2.70;;
17510;SDS011;8873;48.818;9.422;2023-11-19T19:04:27;2.95;;;2.70;;
17510;SDS011;8873;48.818;9.422;2023-11-19T19:06:56;3.35;;;2.42;;
17510;SDS011;8873;48.818;9.422;2023-11-19T19:09:24;2.67;;;2.00;;
17510;SDS011;8873;48.818;9.422;2023-11-19T19:11:51;4.18;;;2.35;;
17510;SDS011;8873;48.818;9.422;2023-11-19T19:14:19;2.72;;;2.45;;
17510;SDS011;8873;48.818;9.422;2023-11-19T19:16:49;6.00;;;3.00;;
17510;SDS011;8873;48.818;9.422;2023-11-19T19:19:17;4.50;;;2.30;;
17510;SDS011;8873;48.818;9.422;2023-11-19T19:21:45;3.72;;;2.38;;
17510;SDS011;8873;48.818;9.422;2023-11-19T19:24:14;3.42;;;2.13;;
17510;SDS011;8873;48.818;9.422;2023-11-19T19:26:41;3.03;;;2.42;;
17510;SDS011;8873;48.818;9.422;2023-11-19T19:29:09;3.67;;;2.63;;
17510;SDS011;8873;48.818;9.422;2023-11-19T19:31:37;3.40;;;2.90;;
17510;SDS011;8873;48.818;9.422;2023-11-19T19:34:07;3.75;;;2.88;;
17510;SDS011;8873;48.818;9.422;2023-11-19T19:36:37;12.23;;;2.90;;
17510;SDS011;8873;48.818;9.422;2023-11-19T19:39:04;6.38;;;2.58;;
17510;SDS011;8873;48.818;9.422;2023-11-19T19:41:40;5.05;;;3.65;;
17510;SDS011;8873;48.818;9.422;2023-11-19T19:44:07;5.00;;;2.75;;
17510;SDS011;8873;48.818;9.422;2023-11-19T19:46:36;3.35;;;3.05;;
17510;SDS011;8873;48.818;9.422;2023-11-19T19:49:04;7.07;;;3.80;;
17510;SDS011;8873;48.818;9.422;2023-11-19T19:51:35;5.78;;;3.58;;
17510;SDS011;8873;48.818;9.422;2023-11-19T19:54:03;10.07;;;3.45;;
17510;SDS011;8873;48.818;9.422;2023-11-19T19:56:31;12.07;;;4.03;;
17510;SDS011;8873;48.818;9.422;2023-11-19T19:58:59;7.47;;;2.50;;
17510;SDS011;8873;48.818;9.422;2023-11-19T20:01:26;9.80;;;2.80;;
17510;SDS011;8873;48.818;9.422;2023-11-19T20:03:54;6.10;;;2.60;;
17510;SDS011;8873;48.818;9.422;2023-11-19T20:06:22;9.68;;;3.35;;
17510;SDS011;8873;48.818;9.422;2023-11-19T20:08:52;10.43;;;3.10;;
17510;SDS011;8873;48.818;9.422;2023-11-19T20:11:20;5.60;;;2.70;;
17510;SDS011;8873;48.818;9.422;2023-11-19T20:13:48;5.20;;;2.95;;
17510;SDS011;8873;48.818;9.422;2023-11-19T20:16:16;6.18;;;2.55;;
17510;SDS011;8873;48.818;9.422;2023-11-19T20:18:44;8.93;;;2.88;;
17510;SDS011;8873;48.818;9.422;2023-11-19T20:21:11;4.18;;;2.70;;
17510;SDS011;8873;48.818;9.422;2023-11-19T20:23:39;9.38;;;2.67;;
17510;SDS011;8873;48.818;9.422;2023-11-19T20:26:08;9.38;;;2.45;;
17510;SDS011;8873;48.818;9.422;2023-11-19T20:28:39;7.72;;;2.78;;
17510;SDS011;8873;48.818;9.422;2023-11-19T20:31:06;7.75;;;2.72;;
17510;SDS011;8873;48.818;9.422;2023-11-19T20:33:34;13.95;;;5.45;;
17510;SDS011;8873;48.818;9.422;2023-11-19T20:36:02;15.07;;;6.30;;
17510;SDS011;8873;48.818;9.422;2023-11-19T20:38:32;8.77;;;5.68;;
17510;SDS011;8873;48.818;9.422;2023-11-19T20:40:59;12.18;;;5.07;;
17510;SDS011;8873;48.818;9.422;2023-11-19T20:43:28;15.10;;;3.40;;
17510;SDS011;8873;48.818;9.422;2023-11-19T20:45:56;12.20;;;3.60;;
17510;SDS011;8873;48.818;9.422;2023-11-19T20:48:31;9.35;;;3.72;;
17510;SDS011;8873;48.818;9.422;2023-11-19T20:50:59;7.30;;;2.97;;
17510;SDS011;8873;48.818;9.422;2023-11-19T20:53:26;6.22;;;3.08;;
17510;SDS011;8873;48.818;9.422;2023-11-19T20:55:54;11.23;;;2.92;;
17510;SDS011;8873;48.818;9.422;2023-11-19T20:58:23;13.65;;;4.05;;
17510;SDS011;8873;48.818;9.422;2023-11-19T21:00:51;5.10;;;3.10;;
17510;SDS011;8873;48.818;9.422;2023-11-19T21:03:19;5.88;;;3.10;;
17510;SDS011;8873;48.818;9.422;2023-11-19T21:05:48;8.50;;;3.13;;
17510;SDS011;8873;48.818;9.422;2023-11-19T21:08:20;8.50;;;2.63;;
17510;SDS011;8873;48.818;9.422;2023-11-19T21:10:48;9.85;;;3.00;;
17510;SDS011;8873;48.818;9.422;2023-11-19T21:13:17;15.57;;;3.10;;
17510;SDS011;8873;48.818;9.422;2023-11-19T21:15:45;13.98;;;3.35;;
17510;SDS011;8873;48.818;9.422;2023-11-19T21:18:25;12.02;;;3.92;;
17510;SDS011;8873;48.818;9.422;2023-11-19T21:20:53;10.93;;;3.25;;
17510;SDS011;8873;48.818;9.422;2023-11-19T21:23:20;12.30;;;3.05;;
17510;SDS011;8873;48.818;9.422;2023-11-19T21:25:48;24.23;;;3.70;;
17510;SDS011;8873;48.818;9.422;2023-11-19T21:28:16;14.23;;;3.15;;
17510;SDS011;8873;48.818;9.422;2023-11-19T21:30:44;10.48;;;3.72;;
17510;SDS011;8873;48.818;9.422;2023-11-19T21:33:11;13.02;;;3.20;;
17510;SDS011;8873;48.818;9.422;2023-11-19T21:35:40;12.35;;;3.63;;
17510;SDS011;8873;48.818;9.422;2023-11-19T21:38:08;11.75;;;3.20;;
17510;SDS011;8873;48.818;9.422;2023-11-19T21:40:36;15.95;;;3.22;;
17510;SDS011;8873;48.818;9.422;2023-11-19T21:43:03;15.43;;;3.20;;
17510;SDS011;8873;48.818;9.422;2023-11-19T21:45:31;15.10;;;3.15;;
17510;SDS011;8873;48.818;9.422;2023-11-19T21:47:59;11.77;;;2.97;;
17510;SDS011;8873;48.818;9.422;2023-11-19T21:50:26;12.75;;;3.08;;
17510;SDS011;8873;48.818;9.422;2023-11-19T21:52:55;17.10;;;3.47;;
17510;SDS011;8873;48.818;9.422;2023-11-19T21:55:23;16.52;;;3.47;;
17510;SDS011;8873;48.818;9.422;2023-11-19T21:57:51;15.30;;;3.20;;
17510;SDS011;8873;48.818;9.422;2023-11-19T22:00:19;17.20;;;3.47;;
17510;SDS011;8873;48.818;9.422;2023-11-19T22:02:47;22.35;;;3.70;;
17510;SDS011;8873;48.818;9.422;2023-11-19T22:05:15;12.98;;;3.53;;
17510;SDS011;8873;48.818;9.422;2023-11-19T22:07:47;14.75;;;3.70;;
17510;SDS011;8873;48.818;9.422;2023-11-19T22:10:16;11.23;;;3.35;;
17510;SDS011;8873;48.818;9.422;2023-11-19T22:12:44;10.80;;;3.53;;
17510;SDS011;8873;48.818;9.422;2023-11-19T22:15:12;8.80;;;3.35;;
17510;SDS011;8873;48.818;9.422;2023-11-19T22:17:43;15.20;;;3.53;;
17510;SDS011;8873;48.818;9.422;2023-11-19T22:20:10;10.82;;;2.70;;
17510;SDS011;8873;48.818;9.422;2023-11-19T22:22:41;15.82;;;2.95;;
17510;SDS011;8873;48.818;9.422;2023-11-19T22:25:09;13.48;;;3.70;;
17510;SDS011;8873;48.818;9.422;2023-11-19T22:27:38;13.50;;;2.70;;
17510;SDS011;8873;48.818;9.422;2023-11-19T22:30:06;15.55;;;3.00;;
17510;SDS011;8873;48.818;9.422;2023-11-19T22:32:35;10.90;;;3.42;;
17510;SDS011;8873;48.818;9.422;2023-11-19T22:35:04;11.25;;;3.38;;
17510;SDS011;8873;48.818;9.422;2023-11-19T22:37:32;9.13;;;2.65;;
17510;SDS011;8873;48.818;9.422;2023-11-19T22:39:59;8.32;;;2.65;;
17510;SDS011;8873;48.818;9.422;2023-11-19T22:42:27;7.93;;;2.78;;
17510;SDS011;8873;48.818;9.422;2023-11-19T22:44:56;12.98;;;2.40;;
17510;SDS011;8873;48.818;9.422;2023-11-19T22:47:25;11.27;;;2.85;;
17510;SDS011;8873;48.818;9.422;2023-11-19T22:49:53;9.65;;;3.22;;
17510;SDS011;8873;48.818;9.422;2023-11-19T22:52:20;15.63;;;2.65;;
17510;SDS011;8873;48.818;9.422;2023-11-19T22:54:48;17.58;;;3.30;;
17510;SDS011;8873;48.818;9.422;2023-11-19T22:57:16;9.35;;;2.78;;
17510;SDS011;8873;48.818;9.422;2023-11-19T22:59:43;11.52;;;2.95;;
17510;SDS011;8873;48.818;9.422;2023-11-19T23:02:12;17.10;;;2.58;;
17510;SDS011;8873;48.818;9.422;2023-11-19T23:04:40;9.80;;;2.50;;
17510;SDS011;8873;48.818;9.422;2023-11-19T23:07:08;9.30;;;2.58;;
17510;SDS011;8873;48.818;9.422;2023-11-19T23:09:35;12.02;;;2.72;;
17510;SDS011;8873;48.818;9.422;2023-11-19T23:12:07;11.43;;;2.67;;
17510;SDS011;8873;48.818;9.422;2023-11-19T23:14:37;11.23;;;2.90;;
17510;SDS011;8873;48.818;9.422;2023-11-19T23:17:04;11.15;;;2.75;;
17510;SDS011;8873;48.818;9.422;2023-11-19T23:19:33;9.35;;;2.53;;
17510;SDS011;8873;48.818;9.422;2023-11-19T23:22:01;10.90;;;2.47;;
17510;SDS011;8873;48.818;9.422;2023-11-19T23:24:29;16.35;;;3.03;;
17510;SDS011;8873;48.818;9.422;2023-11-19T23:26:57;8.77;;;2.45;;
17510;SDS011;8873;48.818;9.422;2023-11-19T23:29:25;11.70;;;2.65;;
17510;SDS011;8873;48.818;9.422;2023-11-19T23:31:52;11.25;;;2.72;;
17510;SDS011;8873;48.818;9.422;2023-11-19T23:34:20;13.73;;;2.80;;
17510;SDS011;8873;48.818;9.422;2023-11-19T23:37:10;11.40;;;2.65;;
17510;SDS011;8873;48.818;9.422;2023-11-19T23:39:37;10.52;;;2.60;;
17510;SDS011;8873;48.818;9.422;2023-11-19T23:42:05;11.93;;;2.70;;
17510;SDS011;8873;48.818;9.422;2023-11-19T23:44:33;10.60;;;2.33;;
17510;SDS011;8873;48.818;9.422;2023-11-19T23:47:01;18.80;;;3.55;;
17510;SDS011;8873;48.818;9.422;2023-11-19T23:49:29;12.55;;;3.15;;
17510;SDS011;8873;48.818;9.422;2023-11-19T23:51:58;18.95;;;3.08;;
17510;SDS011;8873;48.818;9.422;2023-11-19T23:54:28;14.70;;;3.67;;
17510;SDS011;8873;48.818;9.422;2023-11-19T23:56:55;14.45;;;2.80;;
17510;SDS011;8873;48.818;9.422;2023-11-19T23:59:23;12.95;;;2.47;;
